createdAt,value
2023-01-13T00:01:44.662Z,96524.47
2023-01-13T00:04:13.314Z,96565.97
2023-01-13T00:06:39.630Z,96577.16
2023-01-13T00:09:05.953Z,96582.25
2023-01-13T00:11:32.268Z,96599.59
2023-01-13T00:13:58.594Z,96617.81
2023-01-13T00:16:25.014Z,96616.72
2023-01-13T00:18:51.361Z,96630.84
2023-01-13T00:21:21.490Z,96638.25
2023-01-13T00:23:47.862Z,96646.88
2023-01-13T00:26:17.785Z,96661.44
2023-01-13T00:28:44.110Z,96676.97
2023-01-13T00:31:11.183Z,96672.09
2023-01-13T00:33:37.991Z,96689.56
2023-01-13T00:36:04.825Z,96696.59
2023-01-13T00:38:31.369Z,96703.22
2023-01-13T00:40:58.189Z,96719.34
2023-01-13T00:43:24.767Z,96720.84
2023-01-13T00:45:51.177Z,96725.72
2023-01-13T00:48:18.269Z,96749.28
2023-01-13T00:50:44.717Z,96768.06
2023-01-13T00:53:11.038Z,96772.09
2023-01-13T00:55:37.355Z,96783.59
2023-01-13T00:58:03.722Z,96782.16
2023-01-13T01:00:30.614Z,96805.38
2023-01-13T01:02:56.956Z,96799.50
2023-01-13T01:05:23.270Z,96813.38
2023-01-13T01:07:49.598Z,96809.78
2023-01-13T01:10:16.068Z,96847.75
2023-01-13T01:12:42.380Z,96869.25
2023-01-13T01:15:09.010Z,96863.59
2023-01-13T01:17:35.763Z,96880.19
2023-01-13T01:20:02.436Z,96882.81
2023-01-13T01:22:28.761Z,96877.38
2023-01-13T01:24:55.114Z,96866.53
2023-01-13T01:27:21.437Z,96850.56
2023-01-13T01:29:47.769Z,96838.56
2023-01-13T01:32:14.087Z,96829.34
2023-01-13T01:34:40.455Z,96809.59
2023-01-13T01:37:06.774Z,96809.34
2023-01-13T01:39:33.107Z,96829.84
2023-01-13T01:41:59.433Z,96828.66
2023-01-13T01:44:44.626Z,96834.88
2023-01-13T01:47:11.387Z,96792.97
2023-01-13T01:49:37.719Z,96779.31
2023-01-13T01:52:04.828Z,96797.75
2023-01-13T01:54:33.070Z,96818.06
2023-01-13T01:56:59.416Z,96849.63
2023-01-13T01:59:25.796Z,96939.88
2023-01-13T02:01:52.206Z,97024.38
2023-01-13T02:04:23.253Z,97117.81
2023-01-13T02:06:51.894Z,97234.06
2023-01-13T02:09:18.278Z,97279.22
2023-01-13T02:11:44.704Z,97339.25
2023-01-13T02:14:11.045Z,97363.16
2023-01-13T02:16:37.430Z,97394.09
2023-01-13T02:19:28.766Z,97423.19
2023-01-13T02:22:06.708Z,97453.97
2023-01-13T02:24:37.780Z,97480.63
2023-01-13T02:27:12.562Z,97480.47
2023-01-13T02:29:52.926Z,97435.94
2023-01-13T02:32:20.043Z,97425.53
2023-01-13T02:34:57.418Z,97409.47
2023-01-13T02:37:27.411Z,97398.31
2023-01-13T02:39:55.427Z,97370.16
2023-01-13T02:42:25.810Z,97377.69
2023-01-13T02:44:53.701Z,97362.09
2023-01-13T02:47:25.020Z,97363.78
2023-01-13T02:50:01.631Z,97372.81
2023-01-13T02:52:38.246Z,97395.09
2023-01-13T02:55:08.914Z,97403.72
2023-01-13T02:57:35.249Z,97404.34
2023-01-13T03:00:01.568Z,97420.38
2023-01-13T03:02:28.058Z,97425.56
2023-01-13T03:04:55.160Z,97453.56
2023-01-13T03:07:42.698Z,97489.78
2023-01-13T03:10:15.100Z,97528.00
2023-01-13T03:12:44.209Z,97542.63
2023-01-13T03:15:16.309Z,97566.47
2023-01-13T03:17:44.054Z,97575.00
2023-01-13T03:20:22.166Z,97582.78
2023-01-13T03:22:48.562Z,97592.09
2023-01-13T03:25:18.677Z,97610.69
2023-01-13T03:27:52.901Z,97618.34
2023-01-13T03:30:20.370Z,97645.91
2023-01-13T03:32:48.570Z,97667.84
2023-01-13T03:35:16.975Z,97673.16
2023-01-13T03:37:45.716Z,97679.91
2023-01-13T03:40:22.563Z,97703.84
2023-01-13T03:43:00.498Z,97713.81
2023-01-13T03:45:26.695Z,97735.44
2023-01-13T03:47:54.468Z,97740.63
2023-01-13T03:50:22.474Z,97735.72
2023-01-13T03:52:48.710Z,97724.75
2023-01-13T03:55:19.036Z,97730.59
2023-01-13T03:57:59.396Z,97745.13
2023-01-13T04:00:26.543Z,97761.84
2023-01-13T04:03:12.987Z,97778.66
2023-01-13T04:05:40.096Z,97795.41
2023-01-13T04:08:15.454Z,97814.06
2023-01-13T04:10:44.613Z,97826.56
2023-01-13T04:13:12.549Z,97842.00
2023-01-13T04:15:39.424Z,97858.06
2023-01-13T04:18:20.505Z,97863.75
2023-01-13T04:20:47.284Z,97878.47
2023-01-13T04:23:13.532Z,97897.88
2023-01-13T04:25:40.495Z,97893.78
2023-01-13T04:28:06.826Z,97900.31
2023-01-13T04:30:33.322Z,97900.66
2023-01-13T04:32:59.545Z,97900.28
2023-01-13T04:35:25.783Z,97900.78
2023-01-13T04:37:51.993Z,97897.13
2023-01-13T04:40:18.497Z,97891.53
2023-01-13T04:42:45.480Z,97881.91
2023-01-13T04:45:11.836Z,97886.47
2023-01-13T04:47:38.273Z,97869.34
2023-01-13T04:50:05.041Z,97854.63
2023-01-13T04:52:31.269Z,97841.16
2023-01-13T04:54:57.477Z,97829.50
2023-01-13T04:57:23.699Z,97800.22
2023-01-13T04:59:49.916Z,97779.56
2023-01-13T05:02:16.150Z,97758.72
2023-01-13T05:04:42.431Z,97750.72
2023-01-13T05:07:08.786Z,97742.56
2023-01-13T05:09:35.099Z,97732.97
2023-01-13T05:12:01.371Z,97728.34
2023-01-13T05:14:27.617Z,97712.09
2023-01-13T05:16:56.689Z,97713.34
2023-01-13T05:19:23.015Z,97708.88
2023-01-13T05:21:49.263Z,97698.38
2023-01-13T05:24:15.495Z,97709.81
2023-01-13T05:26:41.711Z,97695.03
2023-01-13T05:29:08.032Z,97705.88
2023-01-13T05:31:34.472Z,97722.97
2023-01-13T05:34:01.104Z,97756.09
2023-01-13T05:36:29.746Z,97770.63
2023-01-13T05:38:57.583Z,97819.13
2023-01-13T05:41:23.785Z,97838.31
2023-01-13T05:43:50.008Z,97863.69
2023-01-13T05:46:16.237Z,97873.28
2023-01-13T05:48:42.612Z,97878.22
2023-01-13T05:51:09.464Z,97895.44
2023-01-13T05:53:35.829Z,97910.50
2023-01-13T05:56:05.436Z,97925.78
2023-01-13T05:58:31.666Z,97941.41
2023-01-13T06:01:01.630Z,97954.41
2023-01-13T06:03:27.939Z,97960.34
2023-01-13T06:05:54.152Z,97974.59
2023-01-13T06:08:20.379Z,97997.91
2023-01-13T06:10:46.608Z,98010.88
2023-01-13T06:13:12.811Z,98021.91
2023-01-13T06:15:39.032Z,98024.75
2023-01-13T06:18:05.259Z,98024.75
2023-01-13T06:20:31.501Z,98025.31
2023-01-13T06:22:57.705Z,98023.22
2023-01-13T06:25:32.126Z,98025.94
2023-01-13T06:27:58.707Z,98022.03
2023-01-13T06:30:25.292Z,98030.75
2023-01-13T06:32:55.099Z,98036.84
2023-01-13T06:35:23.493Z,98032.22
2023-01-13T06:37:50.019Z,98019.59
2023-01-13T06:40:16.242Z,98016.50
2023-01-13T06:42:42.446Z,98003.00
2023-01-13T06:45:08.812Z,98000.13
2023-01-13T06:47:35.029Z,98006.16
2023-01-13T06:50:01.246Z,97994.47
2023-01-13T06:52:27.472Z,97995.50
2023-01-13T06:54:53.696Z,97996.34
2023-01-13T06:57:19.906Z,97992.22
2023-01-13T06:59:46.119Z,98002.25
2023-01-13T07:02:12.543Z,98012.16
2023-01-13T07:04:38.843Z,98003.34
2023-01-13T07:07:05.059Z,98018.34
2023-01-13T07:09:31.272Z,98032.00
2023-01-13T07:11:57.504Z,98040.06
2023-01-13T07:14:23.719Z,98046.97
2023-01-13T07:16:51.513Z,98069.28
2023-01-13T07:19:17.783Z,98080.47
2023-01-13T07:21:43.994Z,98095.19
2023-01-13T07:24:10.204Z,98114.91
2023-01-13T07:26:36.414Z,98129.66
2023-01-13T07:29:02.659Z,98131.69
2023-01-13T07:31:28.946Z,98155.50
2023-01-13T07:33:55.188Z,98174.44
2023-01-13T07:36:21.407Z,98198.84
2023-01-13T07:38:47.613Z,98202.72
2023-01-13T07:41:14.079Z,98209.97
2023-01-13T07:43:40.283Z,98219.25
2023-01-13T07:46:06.600Z,98227.84
2023-01-13T07:48:33.304Z,98228.34
2023-01-13T07:51:02.843Z,98244.06
2023-01-13T07:53:29.283Z,98243.53
2023-01-13T07:55:55.853Z,98260.38
2023-01-13T07:58:22.071Z,98261.56
2023-01-13T08:00:48.330Z,98271.94
2023-01-13T08:03:14.581Z,98289.59
2023-01-13T08:05:40.800Z,98303.31
2023-01-13T08:08:07.025Z,98318.84
2023-01-13T08:10:33.260Z,98336.13
2023-01-13T08:12:59.482Z,98354.00
2023-01-13T08:15:25.700Z,98372.16
2023-01-13T08:17:51.923Z,98386.88
2023-01-13T08:20:18.126Z,98385.91
2023-01-13T08:22:44.401Z,98398.38
2023-01-13T08:25:10.624Z,98414.47
2023-01-13T08:27:36.856Z,98422.75
2023-01-13T08:30:03.068Z,98409.78
2023-01-13T08:32:29.287Z,98430.03
2023-01-13T08:34:55.501Z,98431.06
2023-01-13T08:37:21.715Z,98435.66
2023-01-13T08:39:47.985Z,98453.06
2023-01-13T08:42:14.192Z,98461.13
2023-01-13T08:44:40.401Z,98474.88
2023-01-13T08:47:06.617Z,98480.06
2023-01-13T08:49:32.972Z,98485.97
2023-01-13T08:51:59.191Z,98506.72
2023-01-13T08:54:25.403Z,98506.44
2023-01-13T08:56:51.694Z,98516.75
2023-01-13T08:59:21.443Z,98534.22
2023-01-13T09:01:47.757Z,98541.94
2023-01-13T09:04:17.995Z,98550.22
2023-01-13T09:06:44.213Z,98555.66
2023-01-13T09:09:10.451Z,98557.94
2023-01-13T09:11:37.130Z,98563.13
2023-01-13T09:14:03.681Z,98580.47
2023-01-13T09:16:30.004Z,98594.53
2023-01-13T09:18:56.224Z,98599.16
2023-01-13T09:21:22.432Z,98607.19
2023-01-13T09:23:48.730Z,98619.66
2023-01-13T09:26:15.646Z,98618.59
2023-01-13T09:28:41.880Z,98640.69
2023-01-13T09:31:08.138Z,98647.19
2023-01-13T09:33:34.409Z,98647.88
2023-01-13T09:36:00.799Z,98667.59
2023-01-13T09:38:27.187Z,98667.28
2023-01-13T09:40:53.420Z,98680.50
2023-01-13T09:43:21.079Z,98682.09
2023-01-13T09:45:55.196Z,98687.53
2023-01-13T09:48:26.560Z,98693.19
2023-01-13T09:51:11.583Z,98701.19
2023-01-13T09:53:38.459Z,98702.19
2023-01-13T09:56:05.022Z,98716.34
2023-01-13T09:58:31.237Z,98705.66
2023-01-13T10:01:11.130Z,98713.75
2023-01-13T10:03:37.416Z,98716.09
2023-01-13T10:06:06.038Z,98728.06
2023-01-13T10:08:36.764Z,98742.38
2023-01-13T10:11:07.153Z,98738.25
2023-01-13T10:13:33.439Z,98747.00
2023-01-13T10:16:05.848Z,98749.09
2023-01-13T10:18:34.748Z,98750.31
2023-01-13T10:21:21.188Z,98742.97
2023-01-13T10:23:56.483Z,98729.50
2023-01-13T10:26:31.954Z,98745.72
2023-01-13T10:28:58.167Z,98754.50
2023-01-13T10:31:24.482Z,98748.75
2023-01-13T10:34:00.460Z,98752.91
2023-01-13T10:36:26.671Z,98730.06
2023-01-13T10:38:54.000Z,98728.00
2023-01-13T10:41:23.378Z,98724.63
2023-01-13T10:43:52.722Z,98720.91
2023-01-13T10:46:19.334Z,98726.50
2023-01-13T10:48:58.629Z,98714.28
2023-01-13T10:51:27.856Z,98709.13
2023-01-13T10:53:57.997Z,98711.97
2023-01-13T10:56:25.257Z,98719.28
2023-01-13T10:58:51.467Z,98729.72
2023-01-13T11:01:27.206Z,98718.75
2023-01-13T11:03:53.882Z,98730.72
2023-01-13T11:06:29.069Z,98732.53
2023-01-13T11:08:55.695Z,98732.53
2023-01-13T11:11:36.908Z,98737.19
2023-01-13T11:14:12.530Z,98702.81
2023-01-13T11:16:40.836Z,98706.28
2023-01-13T11:19:15.080Z,98731.03
2023-01-13T11:21:47.274Z,98743.81
2023-01-13T11:24:19.381Z,98747.69
2023-01-13T11:27:05.155Z,98748.16
2023-01-13T11:29:34.885Z,98738.75
2023-01-13T11:32:14.985Z,98692.19
2023-01-13T11:34:41.304Z,98707.13
2023-01-13T11:37:16.575Z,98704.44
2023-01-13T11:39:48.730Z,98703.19
2023-01-13T11:42:14.888Z,98703.66
2023-01-13T11:44:45.632Z,98672.69
2023-01-13T11:47:14.311Z,98631.63
2023-01-13T11:49:40.528Z,98678.28
2023-01-13T11:52:11.374Z,98733.19
2023-01-13T11:54:44.040Z,98764.44
2023-01-13T11:57:28.991Z,98783.41
2023-01-13T12:00:01.404Z,98803.69
2023-01-13T12:02:39.051Z,98790.91
2023-01-13T12:05:14.901Z,98788.59
2023-01-13T12:07:44.088Z,98779.50
2023-01-13T12:10:17.852Z,98762.78
2023-01-13T12:12:53.108Z,98751.44
2023-01-13T12:15:22.130Z,98761.00
2023-01-13T12:17:54.502Z,98763.56
2023-01-13T12:20:29.663Z,98709.19
2023-01-13T12:22:56.075Z,98686.34
2023-01-13T12:25:29.402Z,98716.56
2023-01-13T12:27:59.423Z,98744.59
2023-01-13T12:30:26.767Z,98729.78
2023-01-13T12:32:53.888Z,98720.94
2023-01-13T12:35:37.855Z,98740.94
2023-01-13T12:38:16.400Z,98758.09
2023-01-13T12:40:47.547Z,98732.09
2023-01-13T12:43:20.420Z,98767.75
2023-01-13T12:45:46.703Z,98786.25
2023-01-13T12:48:31.496Z,98796.13
2023-01-13T12:50:58.358Z,98810.66
2023-01-13T12:53:31.762Z,98804.38
2023-01-13T12:56:30.491Z,98810.34
2023-01-13T12:59:15.465Z,98847.06
2023-01-13T13:01:42.302Z,98875.66
2023-01-13T13:04:09.758Z,98925.06
2023-01-13T13:06:36.323Z,98995.75
2023-01-13T13:09:04.365Z,99041.72
2023-01-13T13:11:40.980Z,99069.53
2023-01-13T13:14:10.667Z,99103.81
2023-01-13T13:16:49.929Z,99132.66
2023-01-13T13:19:19.218Z,99140.72
2023-01-13T13:22:03.911Z,99143.03
2023-01-13T13:24:30.119Z,99126.94
2023-01-13T13:26:56.444Z,99128.22
2023-01-13T13:29:40.186Z,99127.44
2023-01-13T13:32:19.049Z,99146.16
2023-01-13T13:35:00.835Z,99161.97
2023-01-13T13:37:30.146Z,99182.22
2023-01-13T13:39:56.344Z,99198.03
2023-01-13T13:42:23.527Z,99216.75
2023-01-13T13:44:49.737Z,99210.53
2023-01-13T13:47:15.943Z,99207.91
2023-01-13T13:49:42.998Z,99203.00
2023-01-13T13:52:14.652Z,99193.63
2023-01-13T13:54:41.419Z,99202.44
2023-01-13T13:57:17.339Z,99195.19
2023-01-13T13:59:43.609Z,99194.41
2023-01-13T14:02:15.176Z,99190.78
2023-01-13T14:04:41.494Z,99186.38
2023-01-13T14:07:17.792Z,99199.84
2023-01-13T14:09:44.727Z,99197.53
2023-01-13T14:12:21.111Z,99205.59
2023-01-13T14:14:47.510Z,99211.56
2023-01-13T14:17:33.945Z,99194.19
2023-01-13T14:20:00.110Z,99175.50
2023-01-13T14:22:26.346Z,99174.94
2023-01-13T14:24:52.575Z,99173.94
2023-01-13T14:27:18.803Z,99137.31
2023-01-13T14:29:45.016Z,99131.31
2023-01-13T14:32:12.956Z,99132.66
2023-01-13T14:34:42.372Z,99133.69
2023-01-13T14:37:34.544Z,99143.03
2023-01-13T14:40:00.903Z,99139.91
2023-01-13T14:42:27.170Z,99155.19
2023-01-13T14:44:54.752Z,99154.72
2023-01-13T14:47:23.369Z,99173.16
2023-01-13T14:49:53.642Z,99199.84
2023-01-13T14:52:20.142Z,99216.97
2023-01-13T14:54:53.190Z,99232.53
2023-01-13T14:57:25.480Z,99236.72
2023-01-13T14:59:51.859Z,99250.47
2023-01-13T15:02:34.815Z,99255.66
2023-01-13T15:05:19.374Z,99259.53
2023-01-13T15:07:52.385Z,99245.50
2023-01-13T15:10:30.699Z,99249.16
2023-01-13T15:12:59.447Z,99238.53
2023-01-13T15:15:47.972Z,99234.63
2023-01-13T15:18:14.865Z,99230.97
2023-01-13T15:20:41.261Z,99240.53
2023-01-13T15:23:07.529Z,99238.94
2023-01-13T15:25:34.318Z,99239.97
2023-01-13T15:28:00.516Z,99244.13
2023-01-13T15:30:26.727Z,99236.84
2023-01-13T15:32:53.776Z,99230.06
2023-01-13T15:35:20.054Z,99223.84
2023-01-13T15:37:46.297Z,99206.78
2023-01-13T15:40:19.549Z,99203.06
2023-01-13T15:42:45.986Z,99189.59
2023-01-13T15:45:12.407Z,99178.69
2023-01-13T15:47:38.822Z,99163.88
2023-01-13T15:50:05.068Z,99156.09
2023-01-13T15:52:34.441Z,99149.09
2023-01-13T15:55:00.673Z,99127.56
2023-01-13T15:57:27.941Z,99129.91
2023-01-13T15:59:55.074Z,99117.44
2023-01-13T16:02:25.226Z,99108.94
2023-01-13T16:04:51.651Z,99105.56
2023-01-13T16:07:18.749Z,99100.34
2023-01-13T16:09:54.562Z,99090.25
2023-01-13T16:12:20.773Z,99091.28
2023-01-13T16:14:46.972Z,99076.75
2023-01-13T16:17:17.072Z,99071.81
2023-01-13T16:19:43.586Z,99081.69
2023-01-13T16:22:14.392Z,99077.81
2023-01-13T16:24:40.739Z,99072.09
2023-01-13T16:27:19.545Z,99061.69
2023-01-13T16:29:46.184Z,99064.28
2023-01-13T16:32:12.444Z,99062.22
2023-01-13T16:34:38.645Z,99065.34
2023-01-13T16:37:07.251Z,99066.63
2023-01-13T16:39:33.474Z,99061.44
2023-01-13T16:41:59.749Z,99071.31
2023-01-13T16:44:25.977Z,99074.94
2023-01-13T16:46:52.177Z,99099.81
2023-01-13T16:49:18.395Z,99125.25
2023-01-13T16:51:44.620Z,99132.00
2023-01-13T16:54:10.852Z,99139.22
2023-01-13T16:56:37.072Z,99130.16
2023-01-13T16:59:07.102Z,99106.81
2023-01-13T17:01:34.196Z,99112.47
2023-01-13T17:04:00.800Z,99088.84
2023-01-13T17:06:47.236Z,99088.91
2023-01-13T17:09:20.670Z,99052.00
2023-01-13T17:11:46.874Z,99035.66
2023-01-13T17:14:19.017Z,99006.63
2023-01-13T17:16:45.805Z,98981.66
2023-01-13T17:19:12.471Z,98973.38
2023-01-13T17:21:38.673Z,98950.28
2023-01-13T17:24:04.948Z,98946.41
2023-01-13T17:26:37.896Z,98943.53
2023-01-13T17:29:07.648Z,98933.16
2023-01-13T17:31:34.299Z,98914.50
2023-01-13T17:34:00.618Z,98899.19
2023-01-13T17:36:26.822Z,98872.47
2023-01-13T17:38:53.698Z,98861.84
2023-01-13T17:41:19.927Z,98834.34
2023-01-13T17:43:46.159Z,98795.22
2023-01-13T17:46:12.783Z,98771.59
2023-01-13T17:48:39.035Z,98751.13
2023-01-13T17:51:07.099Z,98732.69
2023-01-13T17:53:33.313Z,98709.91
2023-01-13T17:55:59.525Z,98677.97
2023-01-13T17:58:25.798Z,98663.72
2023-01-13T18:00:52.650Z,98649.72
2023-01-13T18:03:19.468Z,98637.53
2023-01-13T18:05:45.686Z,98621.47
2023-01-13T18:08:11.901Z,98630.28
2023-01-13T18:10:38.146Z,98634.94
2023-01-13T18:13:04.429Z,98640.13
2023-01-13T18:15:30.646Z,98639.91
2023-01-13T18:17:56.885Z,98641.72
2023-01-13T18:20:23.333Z,98674.38
2023-01-13T18:22:49.531Z,98688.13
2023-01-13T18:25:15.750Z,98702.91
2023-01-13T18:27:42.108Z,98727.53
2023-01-13T18:30:08.784Z,98737.91
2023-01-13T18:32:35.340Z,98739.47
2023-01-13T18:35:05.981Z,98737.13
2023-01-13T18:37:33.204Z,98739.72
2023-01-13T18:39:59.456Z,98747.47
2023-01-13T18:42:25.653Z,98767.97
2023-01-13T18:44:51.886Z,98765.13
2023-01-13T18:47:18.136Z,98777.84
2023-01-13T18:49:44.723Z,98788.47
2023-01-13T18:52:10.973Z,98783.28
2023-01-13T18:54:37.185Z,98801.19
2023-01-13T18:57:03.453Z,98796.00
2023-01-13T18:59:29.678Z,98798.31
2023-01-13T19:01:55.983Z,98810.75
2023-01-13T19:04:22.269Z,98821.16
2023-01-13T19:06:48.487Z,98814.66
2023-01-13T19:09:33.639Z,98821.91
2023-01-13T19:11:59.917Z,98835.13
2023-01-13T19:14:26.134Z,98831.50
2023-01-13T19:16:52.398Z,98849.38
2023-01-13T19:19:19.685Z,98846.56
2023-01-13T19:21:46.301Z,98862.13
2023-01-13T19:24:12.516Z,98858.97
2023-01-13T19:26:38.730Z,98867.06
2023-01-13T19:29:05.121Z,98882.09
2023-01-13T19:31:31.472Z,98886.50
2023-01-13T19:33:57.712Z,98914.25
2023-01-13T19:36:23.952Z,98912.69
2023-01-13T19:38:50.149Z,98919.97
2023-01-13T19:41:16.370Z,98927.47
2023-01-13T19:43:43.884Z,98938.34
2023-01-13T19:46:10.172Z,98941.75
2023-01-13T19:48:36.411Z,98955.72
2023-01-13T19:51:03.719Z,98963.56
2023-01-13T19:53:30.000Z,98975.50
2023-01-13T19:55:56.312Z,98972.13
2023-01-13T19:58:22.642Z,98988.47
2023-01-13T20:00:48.857Z,98996.25
2023-01-13T20:03:15.430Z,99008.16
2023-01-13T20:05:41.656Z,99014.91
2023-01-13T20:08:07.977Z,99026.28
2023-01-13T20:10:35.106Z,99021.09
2023-01-13T20:13:01.312Z,99039.78
2023-01-13T20:15:28.545Z,99050.94
2023-01-13T20:17:54.978Z,99046.25
2023-01-13T20:20:21.227Z,99056.66
2023-01-13T20:22:48.448Z,99071.72
2023-01-13T20:25:14.650Z,99083.34
2023-01-13T20:27:40.875Z,99087.25
2023-01-13T20:30:07.313Z,99076.88
2023-01-13T20:32:33.517Z,99079.97
2023-01-13T20:34:59.739Z,99082.81
2023-01-13T20:37:26.111Z,99100.72
2023-01-13T20:39:54.264Z,99106.16
2023-01-13T20:42:20.480Z,99129.75
2023-01-13T20:44:46.720Z,99111.53
2023-01-13T20:47:14.584Z,99114.13
2023-01-13T20:49:40.954Z,99128.91
2023-01-13T20:52:07.202Z,99134.38
2023-01-13T20:54:33.407Z,99138.25
2023-01-13T20:56:59.630Z,99131.31
2023-01-13T20:59:25.825Z,99135.72
2023-01-13T21:01:52.082Z,99132.28
2023-01-13T21:04:21.391Z,99129.97
2023-01-13T21:06:47.747Z,99139.56
2023-01-13T21:09:13.946Z,99141.38
2023-01-13T21:11:40.156Z,99154.00
2023-01-13T21:14:06.640Z,99179.72
2023-01-13T21:16:32.941Z,99162.28
2023-01-13T21:18:59.183Z,99196.88
2023-01-13T21:21:25.391Z,99186.94
2023-01-13T21:23:51.605Z,99198.84
2023-01-13T21:26:17.884Z,99194.25
2023-01-13T21:28:44.110Z,99198.84
2023-01-13T21:31:10.351Z,99200.66
2023-01-13T21:33:36.699Z,99200.41
2023-01-13T21:36:06.504Z,99201.94
2023-01-13T21:38:32.862Z,99195.47
2023-01-13T21:40:59.555Z,99194.72
2023-01-13T21:43:25.774Z,99211.59
2023-01-13T21:45:52.117Z,99206.34
2023-01-13T21:48:18.440Z,99211.03
2023-01-13T21:50:44.637Z,99212.31
2023-01-13T21:53:10.841Z,99220.88
2023-01-13T21:55:37.154Z,99229.00
2023-01-13T21:58:07.246Z,99231.63
2023-01-13T22:00:33.457Z,99226.72
2023-01-13T22:03:01.749Z,99245.63
2023-01-13T22:05:27.966Z,99234.50
2023-01-13T22:07:54.186Z,99246.41
2023-01-13T22:10:21.340Z,99253.47
2023-01-13T22:12:47.572Z,99252.38
2023-01-13T22:15:14.333Z,99246.41
2023-01-13T22:17:40.642Z,99253.16
2023-01-13T22:20:07.101Z,99255.22
2023-01-13T22:22:33.316Z,99258.56
2023-01-13T22:24:59.523Z,99261.16
2023-01-13T22:27:25.793Z,99262.44
2023-01-13T22:29:52.142Z,99271.44
2023-01-13T22:32:18.911Z,99278.69
2023-01-13T22:34:45.148Z,99296.06
2023-01-13T22:37:11.428Z,99303.59
2023-01-13T22:39:37.779Z,99313.72
2023-01-13T22:42:04.154Z,99315.25
2023-01-13T22:44:30.364Z,99315.25
2023-01-13T22:46:56.574Z,99323.31
2023-01-13T22:49:22.796Z,99346.13
2023-01-13T22:51:49.036Z,99333.41
2023-01-13T22:54:16.384Z,99354.16
2023-01-13T22:56:42.577Z,99360.44
2023-01-13T22:59:09.585Z,99358.84
2023-01-13T23:01:35.962Z,99364.50
2023-01-13T23:04:02.306Z,99361.41
2023-01-13T23:06:29.378Z,99375.66
2023-01-13T23:08:55.581Z,99364.25
2023-01-13T23:11:23.089Z,99370.69
2023-01-13T23:13:49.467Z,99378.97
2023-01-13T23:16:16.658Z,99372.94
2023-01-13T23:18:42.877Z,99374.22
2023-01-13T23:21:09.908Z,99381.50
2023-01-13T23:23:36.122Z,99378.13
2023-01-13T23:26:02.488Z,99389.28
2023-01-13T23:28:28.692Z,99383.31
2023-01-13T23:30:54.949Z,99380.72
2023-01-13T23:33:21.182Z,99384.94
2023-01-13T23:35:56.853Z,99379.03
2023-01-13T23:38:23.074Z,99380.84
2023-01-13T23:40:49.274Z,99381.38
2023-01-13T23:43:15.534Z,99379.03
2023-01-13T23:45:41.732Z,99378.25
2023-01-13T23:48:09.611Z,99374.09
2023-01-13T23:50:35.827Z,99372.03
2023-01-13T23:53:02.051Z,99365.53
2023-01-13T23:55:28.262Z,99373.00
2023-01-13T23:57:54.464Z,99370.41
